sensor_id;sensor_type;location;lat;lon;timestamp;temperature;humidity
63771;DHT22;60282;43.862;18.430;2023-07-13T00:01:43;23.40;91.80
63771;DHT22;60282;43.862;18.430;2023-07-13T00:04:09;23.20;90.70
63771;DHT22;60282;43.862;18.430;2023-07-13T00:06:35;26.20;91.20
63771;DHT22;60282;43.862;18.430;2023-07-13T00:09:01;23.20;90.50
63771;DHT22;60282;43.862;18.430;2023-07-13T00:11:27;23.20;90.80
63771;DHT22;60282;43.862;18.430;2023-07-13T00:13:53;23.10;92.10
63771;DHT22;60282;43.862;18.430;2023-07-13T00:16:19;23.10;91.00
63771;DHT22;60282;43.862;18.430;2023-07-13T00:18:46;22.30;92.40
63771;DHT22;60282;43.862;18.430;2023-07-13T00:21:12;23.40;92.40
63771;DHT22;60282;43.862;18.430;2023-07-13T00:23:39;23.50;92.80
63771;DHT22;60282;43.862;18.430;2023-07-13T00:26:07;23.50;92.60
63771;DHT22;60282;43.862;18.430;2023-07-13T00:28:34;23.60;91.90
63771;DHT22;60282;43.862;18.430;2023-07-13T00:31:01;23.30;92.70
63771;DHT22;60282;43.862;18.430;2023-07-13T00:33:28;23.40;93.10
63771;DHT22;60282;43.862;18.430;2023-07-13T00:35:55;23.30;92.30
63771;DHT22;60282;43.862;18.430;2023-07-13T00:38:22;23.40;93.40
63771;DHT22;60282;43.862;18.430;2023-07-13T00:40:48;23.30;92.10
63771;DHT22;60282;43.862;18.430;2023-07-13T00:43:19;23.20;92.80
63771;DHT22;60282;43.862;18.430;2023-07-13T00:48:24;23.10;93.70
63771;DHT22;60282;43.862;18.430;2023-07-13T00:50:53;23.10;93.40
63771;DHT22;60282;43.862;18.430;2023-07-13T00:53:21;23.20;93.50
63771;DHT22;60282;43.862;18.430;2023-07-13T00:55:51;23.20;92.70
63771;DHT22;60282;43.862;18.430;2023-07-13T00:58:19;23.10;91.90
63771;DHT22;60282;43.862;18.430;2023-07-13T01:00:47;23.10;93.40
63771;DHT22;60282;43.862;18.430;2023-07-13T01:03:14;23.20;94.00
63771;DHT22;60282;43.862;18.430;2023-07-13T01:05:40;23.30;93.60
63771;DHT22;60282;43.862;18.430;2023-07-13T01:08:06;23.40;93.90
63771;DHT22;60282;43.862;18.430;2023-07-13T01:10:32;23.50;93.40
63771;DHT22;60282;43.862;18.430;2023-07-13T01:13:10;23.40;93.40
63771;DHT22;60282;43.862;18.430;2023-07-13T01:15:40;23.30;92.60
63771;DHT22;60282;43.862;18.430;2023-07-13T01:18:09;23.20;94.30
63771;DHT22;60282;43.862;18.430;2023-07-13T01:20:36;23.30;94.10
63771;DHT22;60282;43.862;18.430;2023-07-13T01:23:06;23.20;93.60
63771;DHT22;60282;43.862;18.430;2023-07-13T01:25:34;23.30;94.20
63771;DHT22;60282;43.862;18.430;2023-07-13T01:28:01;23.20;93.60
63771;DHT22;60282;43.862;18.430;2023-07-13T01:30:27;23.30;94.60
63771;DHT22;60282;43.862;18.430;2023-07-13T01:32:53;23.40;94.10
63771;DHT22;60282;43.862;18.430;2023-07-13T01:35:18;23.40;94.40
63771;DHT22;60282;43.862;18.430;2023-07-13T01:37:44;23.20;92.40
63771;DHT22;60282;43.862;18.430;2023-07-13T01:40:11;23.20;94.50
63771;DHT22;60282;43.862;18.430;2023-07-13T01:42:37;23.40;94.50
63771;DHT22;60282;43.862;18.430;2023-07-13T01:45:03;23.40;92.80
63771;DHT22;60282;43.862;18.430;2023-07-13T01:47:30;22.90;92.90
63771;DHT22;60282;43.862;18.430;2023-07-13T01:49:57;22.60;93.40
63771;DHT22;60282;43.862;18.430;2023-07-13T01:52:23;22.40;93.40
63771;DHT22;60282;43.862;18.430;2023-07-13T01:54:49;22.20;93.90
63771;DHT22;60282;43.862;18.430;2023-07-13T01:57:15;22.30;95.10
63771;DHT22;60282;43.862;18.430;2023-07-13T01:59:40;22.20;94.00
63771;DHT22;60282;43.862;18.430;2023-07-13T02:02:07;22.00;94.40
63771;DHT22;60282;43.862;18.430;2023-07-13T02:04:33;22.00;94.30
63771;DHT22;60282;43.862;18.430;2023-07-13T02:06:59;22.00;94.50
63771;DHT22;60282;43.862;18.430;2023-07-13T02:09:25;22.00;94.60
63771;DHT22;60282;43.862;18.430;2023-07-13T02:11:50;22.00;94.50
63771;DHT22;60282;43.862;18.430;2023-07-13T02:14:16;22.00;94.30
63771;DHT22;60282;43.862;18.430;2023-07-13T02:16:42;22.00;94.50
63771;DHT22;60282;43.862;18.430;2023-07-13T02:19:08;22.00;94.70
63771;DHT22;60282;43.862;18.430;2023-07-13T02:21:34;22.00;95.00
63771;DHT22;60282;43.862;18.430;2023-07-13T02:24:00;22.00;94.90
63771;DHT22;60282;43.862;18.430;2023-07-13T02:26:27;22.00;94.70
63771;DHT22;60282;43.862;18.430;2023-07-13T02:28:52;21.90;94.70
63771;DHT22;60282;43.862;18.430;2023-07-13T02:31:18;21.90;94.90
63771;DHT22;60282;43.862;18.430;2023-07-13T02:33:44;21.80;94.90
63771;DHT22;60282;43.862;18.430;2023-07-13T02:36:11;21.80;95.10
63771;DHT22;60282;43.862;18.430;2023-07-13T02:38:37;21.80;95.20
63771;DHT22;60282;43.862;18.430;2023-07-13T02:41:04;21.70;95.50
63771;DHT22;60282;43.862;18.430;2023-07-13T02:43:31;21.60;95.90
63771;DHT22;60282;43.862;18.430;2023-07-13T02:45:56;21.50;95.80
63771;DHT22;60282;43.862;18.430;2023-07-13T02:48:26;21.50;96.00
63771;DHT22;60282;43.862;18.430;2023-07-13T02:50:51;21.50;95.90
63771;DHT22;60282;43.862;18.430;2023-07-13T02:53:17;21.50;96.00
63771;DHT22;60282;43.862;18.430;2023-07-13T02:55:43;21.50;96.30
63771;DHT22;60282;43.862;18.430;2023-07-13T02:58:13;21.40;96.50
63771;DHT22;60282;43.862;18.430;2023-07-13T03:00:43;21.40;96.70
63771;DHT22;60282;43.862;18.430;2023-07-13T03:03:09;21.30;96.80
63771;DHT22;60282;43.862;18.430;2023-07-13T03:05:36;21.40;96.60
63771;DHT22;60282;43.862;18.430;2023-07-13T03:08:02;21.40;96.30
63771;DHT22;60282;43.862;18.430;2023-07-13T03:10:29;21.50;96.60
63771;DHT22;60282;43.862;18.430;2023-07-13T03:12:55;21.30;97.20
63771;DHT22;60282;43.862;18.430;2023-07-13T03:15:21;21.30;97.50
63771;DHT22;60282;43.862;18.430;2023-07-13T03:17:46;21.20;97.70
63771;DHT22;60282;43.862;18.430;2023-07-13T03:20:12;21.10;97.80
63771;DHT22;60282;43.862;18.430;2023-07-13T03:22:38;21.10;98.10
63771;DHT22;60282;43.862;18.430;2023-07-13T03:25:04;21.00;98.50
63771;DHT22;60282;43.862;18.430;2023-07-13T03:27:30;21.00;98.90
63771;DHT22;60282;43.862;18.430;2023-07-13T03:29:56;20.90;99.20
63771;DHT22;60282;43.862;18.430;2023-07-13T03:32:21;20.90;99.30
63771;DHT22;60282;43.862;18.430;2023-07-13T03:34:47;20.80;99.50
63771;DHT22;60282;43.862;18.430;2023-07-13T03:37:16;20.80;99.50
63771;DHT22;60282;43.862;18.430;2023-07-13T03:39:41;20.90;99.60
63771;DHT22;60282;43.862;18.430;2023-07-13T03:42:07;20.80;99.80
63771;DHT22;60282;43.862;18.430;2023-07-13T03:44:33;20.80;99.90
63771;DHT22;60282;43.862;18.430;2023-07-13T03:46:59;20.70;99.90
63771;DHT22;60282;43.862;18.430;2023-07-13T03:49:24;20.70;99.90
63771;DHT22;60282;43.862;18.430;2023-07-13T03:51:50;20.70;99.90
63771;DHT22;60282;43.862;18.430;2023-07-13T03:54:16;20.70;99.90
63771;DHT22;60282;43.862;18.430;2023-07-13T03:56:41;20.80;99.90
63771;DHT22;60282;43.862;18.430;2023-07-13T03:59:07;20.80;99.90
63771;DHT22;60282;43.862;18.430;2023-07-13T04:01:33;20.80;99.90
63771;DHT22;60282;43.862;18.430;2023-07-13T04:03:59;20.80;99.90
63771;DHT22;60282;43.862;18.430;2023-07-13T04:06:29;20.80;99.90
63771;DHT22;60282;43.862;18.430;2023-07-13T04:08:59;20.80;99.90
63771;DHT22;60282;43.862;18.430;2023-07-13T04:11:27;20.80;99.90
63771;DHT22;60282;43.862;18.430;2023-07-13T04:13:54;21.10;99.90
63771;DHT22;60282;43.862;18.430;2023-07-13T04:16:20;21.30;99.90
63771;DHT22;60282;43.862;18.430;2023-07-13T04:18:46;21.20;99.90
63771;DHT22;60282;43.862;18.430;2023-07-13T04:21:13;21.10;99.90
63771;DHT22;60282;43.862;18.430;2023-07-13T04:26:06;20.90;99.90
63771;DHT22;60282;43.862;18.430;2023-07-13T04:28:32;20.90;99.90
63771;DHT22;60282;43.862;18.430;2023-07-13T04:30:58;21.20;99.90
63771;DHT22;60282;43.862;18.430;2023-07-13T04:33:23;21.40;99.90
63771;DHT22;60282;43.862;18.430;2023-07-13T04:35:50;21.80;99.90
63771;DHT22;60282;43.862;18.430;2023-07-13T04:38:20;21.80;99.90
63771;DHT22;60282;43.862;18.430;2023-07-13T04:40:46;21.80;99.90
63771;DHT22;60282;43.862;18.430;2023-07-13T04:43:12;22.00;99.90
63771;DHT22;60282;43.862;18.430;2023-07-13T04:45:38;22.00;99.90
63771;DHT22;60282;43.862;18.430;2023-07-13T04:48:04;22.30;99.90
63771;DHT22;60282;43.862;18.430;2023-07-13T04:50:30;22.50;99.90
63771;DHT22;60282;43.862;18.430;2023-07-13T04:52:56;22.50;99.90
63771;DHT22;60282;43.862;18.430;2023-07-13T04:55:22;22.20;99.90
63771;DHT22;60282;43.862;18.430;2023-07-13T04:57:47;24.10;99.90
63771;DHT22;60282;43.862;18.430;2023-07-13T05:00:14;22.30;99.90
63771;DHT22;60282;43.862;18.430;2023-07-13T05:02:44;22.30;99.90
63771;DHT22;60282;43.862;18.430;2023-07-13T05:05:10;22.40;99.90
63771;DHT22;60282;43.862;18.430;2023-07-13T05:07:36;22.20;99.90
63771;DHT22;60282;43.862;18.430;2023-07-13T05:10:03;22.00;99.90
63771;DHT22;60282;43.862;18.430;2023-07-13T05:12:29;22.30;99.90
63771;DHT22;60282;43.862;18.430;2023-07-13T05:14:55;22.20;99.90
63771;DHT22;60282;43.862;18.430;2023-07-13T05:17:21;22.00;99.90
63771;DHT22;60282;43.862;18.430;2023-07-13T05:19:47;22.20;99.90
63771;DHT22;60282;43.862;18.430;2023-07-13T05:22:13;22.30;99.90
63771;DHT22;60282;43.862;18.430;2023-07-13T05:24:38;22.40;99.90
63771;DHT22;60282;43.862;18.430;2023-07-13T05:27:04;22.50;99.90
63771;DHT22;60282;43.862;18.430;2023-07-13T05:29:30;21.70;99.90
63771;DHT22;60282;43.862;18.430;2023-07-13T05:31:56;22.70;99.90
63771;DHT22;60282;43.862;18.430;2023-07-13T05:34:22;22.90;99.90
63771;DHT22;60282;43.862;18.430;2023-07-13T05:36:48;23.10;99.90
63771;DHT22;60282;43.862;18.430;2023-07-13T05:39:15;23.00;99.90
63771;DHT22;60282;43.862;18.430;2023-07-13T05:41:41;23.00;99.90
63771;DHT22;60282;43.862;18.430;2023-07-13T05:44:07;23.00;99.90
63771;DHT22;60282;43.862;18.430;2023-07-13T05:46:32;23.10;99.90
63771;DHT22;60282;43.862;18.430;2023-07-13T05:48:59;23.20;99.90
63771;DHT22;60282;43.862;18.430;2023-07-13T05:51:24;23.30;99.90
63771;DHT22;60282;43.862;18.430;2023-07-13T05:53:50;23.30;99.90
63771;DHT22;60282;43.862;18.430;2023-07-13T05:56:16;23.40;99.90
63771;DHT22;60282;43.862;18.430;2023-07-13T05:58:41;23.50;99.90
63771;DHT22;60282;43.862;18.430;2023-07-13T06:01:10;23.40;99.90
63771;DHT22;60282;43.862;18.430;2023-07-13T06:03:37;23.50;99.90
63771;DHT22;60282;43.862;18.430;2023-07-13T06:06:06;23.60;99.90
63771;DHT22;60282;43.862;18.430;2023-07-13T06:08:33;23.50;99.90
63771;DHT22;60282;43.862;18.430;2023-07-13T06:11:13;23.70;99.90
63771;DHT22;60282;43.862;18.430;2023-07-13T06:13:40;23.80;99.90
63771;DHT22;60282;43.862;18.430;2023-07-13T06:16:06;23.80;99.90
63771;DHT22;60282;43.862;18.430;2023-07-13T06:18:33;24.00;99.90
63771;DHT22;60282;43.862;18.430;2023-07-13T06:20:59;24.10;99.90
63771;DHT22;60282;43.862;18.430;2023-07-13T06:23:25;24.20;99.90
63771;DHT22;60282;43.862;18.430;2023-07-13T06:25:51;24.40;99.90
63771;DHT22;60282;43.862;18.430;2023-07-13T06:28:16;24.50;99.90
63771;DHT22;60282;43.862;18.430;2023-07-13T06:33:08;24.80;99.80
63771;DHT22;60282;43.862;18.430;2023-07-13T06:35:34;25.00;99.90
63771;DHT22;60282;43.862;18.430;2023-07-13T06:38:00;25.10;99.90
63771;DHT22;60282;43.862;18.430;2023-07-13T06:40:26;25.30;99.90
63771;DHT22;60282;43.862;18.430;2023-07-13T06:42:54;25.40;99.90
63771;DHT22;60282;43.862;18.430;2023-07-13T06:45:19;25.60;99.90
63771;DHT22;60282;43.862;18.430;2023-07-13T06:47:45;25.70;99.90
63771;DHT22;60282;43.862;18.430;2023-07-13T06:50:11;25.90;99.90
63771;DHT22;60282;43.862;18.430;2023-07-13T06:52:37;26.00;99.90
63771;DHT22;60282;43.862;18.430;2023-07-13T06:55:03;26.20;99.90
63771;DHT22;60282;43.862;18.430;2023-07-13T06:57:29;26.40;99.90
63771;DHT22;60282;43.862;18.430;2023-07-13T06:59:55;26.40;99.90
63771;DHT22;60282;43.862;18.430;2023-07-13T07:02:21;26.50;99.90
63771;DHT22;60282;43.862;18.430;2023-07-13T07:04:47;26.70;99.60
63771;DHT22;60282;43.862;18.430;2023-07-13T07:07:13;26.90;99.50
63771;DHT22;60282;43.862;18.430;2023-07-13T07:09:38;27.00;99.30
63771;DHT22;60282;43.862;18.430;2023-07-13T07:12:05;27.30;98.80
63771;DHT22;60282;43.862;18.430;2023-07-13T07:14:31;27.40;97.50
63771;DHT22;60282;43.862;18.430;2023-07-13T07:16:57;27.80;95.50
63771;DHT22;60282;43.862;18.430;2023-07-13T07:19:24;28.00;95.80
63771;DHT22;60282;43.862;18.430;2023-07-13T07:21:50;28.30;94.70
63771;DHT22;60282;43.862;18.430;2023-07-13T07:24:16;28.60;94.90
63771;DHT22;60282;43.862;18.430;2023-07-13T07:26:42;28.80;95.60
63771;DHT22;60282;43.862;18.430;2023-07-13T07:29:08;28.80;94.90
63771;DHT22;60282;43.862;18.430;2023-07-13T07:31:34;29.10;93.10
63771;DHT22;60282;43.862;18.430;2023-07-13T07:34:00;29.40;92.10
63771;DHT22;60282;43.862;18.430;2023-07-13T07:36:26;28.20;90.90
63771;DHT22;60282;43.862;18.430;2023-07-13T07:38:51;29.80;91.40
63771;DHT22;60282;43.862;18.430;2023-07-13T07:41:17;30.10;91.40
63771;DHT22;60282;43.862;18.430;2023-07-13T07:43:43;30.30;90.10
63771;DHT22;60282;43.862;18.430;2023-07-13T07:46:09;30.40;88.80
63771;DHT22;60282;43.862;18.430;2023-07-13T07:48:35;30.40;87.20
63771;DHT22;60282;43.862;18.430;2023-07-13T07:51:04;30.80;88.00
63771;DHT22;60282;43.862;18.430;2023-07-13T07:53:30;30.90;87.60
63771;DHT22;60282;43.862;18.430;2023-07-13T07:55:56;31.10;85.30
63771;DHT22;60282;43.862;18.430;2023-07-13T07:58:22;31.10;88.40
63771;DHT22;60282;43.862;18.430;2023-07-13T08:00:48;31.20;88.60
63771;DHT22;60282;43.862;18.430;2023-07-13T08:03:14;31.20;88.10
63771;DHT22;60282;43.862;18.430;2023-07-13T08:05:39;31.30;86.30
63771;DHT22;60282;43.862;18.430;2023-07-13T08:08:05;31.40;85.60
63771;DHT22;60282;43.862;18.430;2023-07-13T08:10:31;31.40;85.80
63771;DHT22;60282;43.862;18.430;2023-07-13T08:12:57;31.50;86.60
63771;DHT22;60282;43.862;18.430;2023-07-13T08:15:23;31.50;85.90
63771;DHT22;60282;43.862;18.430;2023-07-13T08:17:49;31.70;84.10
63771;DHT22;60282;43.862;18.430;2023-07-13T08:20:16;31.70;83.40
63771;DHT22;60282;43.862;18.430;2023-07-13T08:22:42;31.90;82.90
63771;DHT22;60282;43.862;18.430;2023-07-13T08:25:08;32.20;83.70
63771;DHT22;60282;43.862;18.430;2023-07-13T08:27:34;32.40;82.00
63771;DHT22;60282;43.862;18.430;2023-07-13T08:30:00;32.50;81.20
63771;DHT22;60282;43.862;18.430;2023-07-13T08:32:26;32.60;79.40
63771;DHT22;60282;43.862;18.430;2023-07-13T08:34:52;32.50;77.10
63771;DHT22;60282;43.862;18.430;2023-07-13T08:37:19;32.60;76.10
63771;DHT22;60282;43.862;18.430;2023-07-13T08:39:45;32.70;75.30
63771;DHT22;60282;43.862;18.430;2023-07-13T08:42:35;32.80;75.00
63771;DHT22;60282;43.862;18.430;2023-07-13T08:50:24;33.20;72.50
63771;DHT22;60282;43.862;18.430;2023-07-13T08:52:52;33.30;73.20
63771;DHT22;60282;43.862;18.430;2023-07-13T08:55:20;33.30;73.90
63771;DHT22;60282;43.862;18.430;2023-07-13T08:57:50;33.20;74.10
63771;DHT22;60282;43.862;18.430;2023-07-13T09:00:18;33.40;74.40
63771;DHT22;60282;43.862;18.430;2023-07-13T09:02:56;33.50;74.60
63771;DHT22;60282;43.862;18.430;2023-07-13T09:05:38;33.50;73.30
63771;DHT22;60282;43.862;18.430;2023-07-13T09:08:32;31.40;72.80
63771;DHT22;60282;43.862;18.430;2023-07-13T09:11:30;33.30;74.20
63771;DHT22;60282;43.862;18.430;2023-07-13T09:16:37;33.70;75.90
63771;DHT22;60282;43.862;18.430;2023-07-13T09:19:07;33.50;75.00
63771;DHT22;60282;43.862;18.430;2023-07-13T09:21:41;33.80;73.80
63771;DHT22;60282;43.862;18.430;2023-07-13T09:26:42;33.70;73.30
63771;DHT22;60282;43.862;18.430;2023-07-13T09:29:16;33.80;71.70
63771;DHT22;60282;43.862;18.430;2023-07-13T09:31:49;33.90;70.80
63771;DHT22;60282;43.862;18.430;2023-07-13T09:34:17;34.00;70.40
63771;DHT22;60282;43.862;18.430;2023-07-13T09:36:43;33.90;71.50
63771;DHT22;60282;43.862;18.430;2023-07-13T09:39:48;34.00;70.60
63771;DHT22;60282;43.862;18.430;2023-07-13T09:42:17;34.00;70.20
63771;DHT22;60282;43.862;18.430;2023-07-13T09:44:57;34.10;72.80
63771;DHT22;60282;43.862;18.430;2023-07-13T09:47:29;34.20;69.80
63771;DHT22;60282;43.862;18.430;2023-07-13T09:49:58;34.30;70.30
63771;DHT22;60282;43.862;18.430;2023-07-13T09:52:25;34.30;69.70
63771;DHT22;60282;43.862;18.430;2023-07-13T09:54:53;34.40;69.60
63771;DHT22;60282;43.862;18.430;2023-07-13T09:57:26;34.30;69.30
63771;DHT22;60282;43.862;18.430;2023-07-13T09:59:53;34.30;69.00
63771;DHT22;60282;43.862;18.430;2023-07-13T10:05:13;31.90;66.60
63771;DHT22;60282;43.862;18.430;2023-07-13T10:07:43;34.90;66.60
63771;DHT22;60282;43.862;18.430;2023-07-13T10:10:18;35.10;66.70
63771;DHT22;60282;43.862;18.430;2023-07-13T10:12:44;35.20;67.60
63771;DHT22;60282;43.862;18.430;2023-07-13T10:15:16;35.30;67.30
63771;DHT22;60282;43.862;18.430;2023-07-13T10:17:43;35.20;67.30
63771;DHT22;60282;43.862;18.430;2023-07-13T10:20:10;35.30;67.10
63771;DHT22;60282;43.862;18.430;2023-07-13T10:25:25;35.70;66.90
63771;DHT22;60282;43.862;18.430;2023-07-13T10:27:53;35.60;65.30
63771;DHT22;60282;43.862;18.430;2023-07-13T10:30:24;35.40;65.20
63771;DHT22;60282;43.862;18.430;2023-07-13T10:33:02;35.20;64.30
63771;DHT22;60282;43.862;18.430;2023-07-13T10:35:30;35.10;65.70
63771;DHT22;60282;43.862;18.430;2023-07-13T10:38:18;35.10;64.90
63771;DHT22;60282;43.862;18.430;2023-07-13T10:40:55;35.30;64.40
63771;DHT22;60282;43.862;18.430;2023-07-13T10:43:37;35.20;64.70
63771;DHT22;60282;43.862;18.430;2023-07-13T10:46:08;34.00;63.80
63771;DHT22;60282;43.862;18.430;2023-07-13T10:48:35;35.70;65.70
63771;DHT22;60282;43.862;18.430;2023-07-13T10:51:04;35.80;64.90
63771;DHT22;60282;43.862;18.430;2023-07-13T10:53:34;35.90;65.50
63771;DHT22;60282;43.862;18.430;2023-07-13T10:56:08;36.10;65.90
63771;DHT22;60282;43.862;18.430;2023-07-13T10:58:43;36.20;64.70
63771;DHT22;60282;43.862;18.430;2023-07-13T11:01:12;36.20;64.80
63771;DHT22;60282;43.862;18.430;2023-07-13T11:03:59;36.10;65.70
63771;DHT22;60282;43.862;18.430;2023-07-13T11:11:48;36.60;65.20
63771;DHT22;60282;43.862;18.430;2023-07-13T11:16:52;36.70;63.80
63771;DHT22;60282;43.862;18.430;2023-07-13T11:33:24;37.60;61.80
63771;DHT22;60282;43.862;18.430;2023-07-13T11:38:39;37.90;63.00
63771;DHT22;60282;43.862;18.430;2023-07-13T11:43:49;37.70;62.20
63771;DHT22;60282;43.862;18.430;2023-07-13T11:46:27;38.20;61.60
63771;DHT22;60282;43.862;18.430;2023-07-13T11:48:53;38.30;61.30
63771;DHT22;60282;43.862;18.430;2023-07-13T11:51:29;38.30;62.00
63771;DHT22;60282;43.862;18.430;2023-07-13T11:54:31;38.60;60.70
63771;DHT22;60282;43.862;18.430;2023-07-13T11:57:02;38.50;60.80
63771;DHT22;60282;43.862;18.430;2023-07-13T11:59:32;38.60;60.80
63771;DHT22;60282;43.862;18.430;2023-07-13T12:01:59;38.70;60.20
63771;DHT22;60282;43.862;18.430;2023-07-13T12:04:32;38.90;60.60
63771;DHT22;60282;43.862;18.430;2023-07-13T12:07:11;39.00;61.10
63771;DHT22;60282;43.862;18.430;2023-07-13T12:09:39;39.50;60.90
63771;DHT22;60282;43.862;18.430;2023-07-13T12:12:28;39.20;60.90
63771;DHT22;60282;43.862;18.430;2023-07-13T12:14:55;39.30;59.80
63771;DHT22;60282;43.862;18.430;2023-07-13T12:17:23;39.00;61.10
63771;DHT22;60282;43.862;18.430;2023-07-13T12:19:51;39.60;61.30
63771;DHT22;60282;43.862;18.430;2023-07-13T12:22:18;39.70;60.50
63771;DHT22;60282;43.862;18.430;2023-07-13T12:24:46;39.30;59.70
63771;DHT22;60282;43.862;18.430;2023-07-13T12:27:24;39.40;61.20
63771;DHT22;60282;43.862;18.430;2023-07-13T12:30:03;39.70;60.90
63771;DHT22;60282;43.862;18.430;2023-07-13T12:32:31;39.70;59.50
63771;DHT22;60282;43.862;18.430;2023-07-13T12:35:17;39.80;61.00
63771;DHT22;60282;43.862;18.430;2023-07-13T12:37:46;39.50;60.80
63771;DHT22;60282;43.862;18.430;2023-07-13T12:40:32;39.70;59.70
63771;DHT22;60282;43.862;18.430;2023-07-13T12:42:59;40.00;60.40
63771;DHT22;60282;43.862;18.430;2023-07-13T12:45:28;40.30;60.30
63771;DHT22;60282;43.862;18.430;2023-07-13T12:48:03;40.50;59.00
63771;DHT22;60282;43.862;18.430;2023-07-13T12:50:43;41.20;58.90
63771;DHT22;60282;43.862;18.430;2023-07-13T12:53:17;40.70;58.10
63771;DHT22;60282;43.862;18.430;2023-07-13T12:55:57;41.00;58.30
63771;DHT22;60282;43.862;18.430;2023-07-13T12:58:37;41.20;58.00
63771;DHT22;60282;43.862;18.430;2023-07-13T13:01:04;40.80;57.40
63771;DHT22;60282;43.862;18.430;2023-07-13T13:03:48;40.60;57.50
63771;DHT22;60282;43.862;18.430;2023-07-13T13:08:41;40.90;58.70
63771;DHT22;60282;43.862;18.430;2023-07-13T13:11:09;41.00;57.70
63771;DHT22;60282;43.862;18.430;2023-07-13T13:13:35;41.20;57.40
63771;DHT22;60282;43.862;18.430;2023-07-13T13:16:21;40.90;57.80
63771;DHT22;60282;43.862;18.430;2023-07-13T13:18:48;39.90;56.30
63771;DHT22;60282;43.862;18.430;2023-07-13T13:21:15;40.30;56.30
63771;DHT22;60282;43.862;18.430;2023-07-13T13:23:41;42.40;56.30
63771;DHT22;60282;43.862;18.430;2023-07-13T13:26:14;43.00;56.50
63771;DHT22;60282;43.862;18.430;2023-07-13T13:28:44;39.70;53.80
63771;DHT22;60282;43.862;18.430;2023-07-13T13:31:11;41.90;56.00
63771;DHT22;60282;43.862;18.430;2023-07-13T13:33:45;41.90;57.20
63771;DHT22;60282;43.862;18.430;2023-07-13T13:36:15;42.40;56.40
63771;DHT22;60282;43.862;18.430;2023-07-13T13:38:43;42.20;55.90
63771;DHT22;60282;43.862;18.430;2023-07-13T13:41:13;42.70;55.90
63771;DHT22;60282;43.862;18.430;2023-07-13T13:43:43;42.80;55.00
63771;DHT22;60282;43.862;18.430;2023-07-13T13:46:19;42.70;54.80
63771;DHT22;60282;43.862;18.430;2023-07-13T13:48:46;43.10;55.00
63771;DHT22;60282;43.862;18.430;2023-07-13T13:51:19;42.90;53.40
63771;DHT22;60282;43.862;18.430;2023-07-13T13:53:46;43.00;53.50
63771;DHT22;60282;43.862;18.430;2023-07-13T13:56:13;42.80;54.30
63771;DHT22;60282;43.862;18.430;2023-07-13T13:58:42;42.50;54.40
63771;DHT22;60282;43.862;18.430;2023-07-13T14:01:13;42.20;56.00
63771;DHT22;60282;43.862;18.430;2023-07-13T14:03:40;42.70;54.90
63771;DHT22;60282;43.862;18.430;2023-07-13T14:06:09;42.20;54.80
63771;DHT22;60282;43.862;18.430;2023-07-13T14:08:36;42.10;54.90
63771;DHT22;60282;43.862;18.430;2023-07-13T14:11:02;42.10;55.70
63771;DHT22;60282;43.862;18.430;2023-07-13T14:13:32;40.90;54.30
63771;DHT22;60282;43.862;18.430;2023-07-13T14:16:00;41.00;55.30
63771;DHT22;60282;43.862;18.430;2023-07-13T14:18:55;40.90;55.50
63771;DHT22;60282;43.862;18.430;2023-07-13T14:21:24;40.80;54.80
63771;DHT22;60282;43.862;18.430;2023-07-13T14:23:50;41.10;56.20
63771;DHT22;60282;43.862;18.430;2023-07-13T14:26:19;40.60;56.30
63771;DHT22;60282;43.862;18.430;2023-07-13T14:28:48;40.50;54.90
63771;DHT22;60282;43.862;18.430;2023-07-13T14:31:16;40.10;56.20
63771;DHT22;60282;43.862;18.430;2023-07-13T14:33:43;40.00;56.60
63771;DHT22;60282;43.862;18.430;2023-07-13T14:36:31;39.00;57.00
63771;DHT22;60282;43.862;18.430;2023-07-13T14:38:58;39.00;56.40
63771;DHT22;60282;43.862;18.430;2023-07-13T14:41:27;38.90;56.30
63771;DHT22;60282;43.862;18.430;2023-07-13T14:43:53;38.70;56.50
63771;DHT22;60282;43.862;18.430;2023-07-13T14:46:27;38.50;58.00
63771;DHT22;60282;43.862;18.430;2023-07-13T14:49:00;38.30;57.70
63771;DHT22;60282;43.862;18.430;2023-07-13T14:51:26;37.80;58.40
63771;DHT22;60282;43.862;18.430;2023-07-13T14:53:52;38.10;59.20
63771;DHT22;60282;43.862;18.430;2023-07-13T14:56:18;37.70;58.50
63771;DHT22;60282;43.862;18.430;2023-07-13T14:58:44;38.10;59.20
63771;DHT22;60282;43.862;18.430;2023-07-13T15:01:13;38.70;58.90
63771;DHT22;60282;43.862;18.430;2023-07-13T15:03:45;39.20;58.20
63771;DHT22;60282;43.862;18.430;2023-07-13T15:06:12;40.00;57.70
63771;DHT22;60282;43.862;18.430;2023-07-13T15:08:39;40.20;56.80
63771;DHT22;60282;43.862;18.430;2023-07-13T15:11:07;40.20;56.70
63771;DHT22;60282;43.862;18.430;2023-07-13T15:13:33;40.00;55.30
63771;DHT22;60282;43.862;18.430;2023-07-13T15:16:00;39.90;55.70
63771;DHT22;60282;43.862;18.430;2023-07-13T15:18:26;40.20;55.90
63771;DHT22;60282;43.862;18.430;2023-07-13T15:20:53;40.40;55.70
63771;DHT22;60282;43.862;18.430;2023-07-13T15:23:23;40.20;55.60
63771;DHT22;60282;43.862;18.430;2023-07-13T15:25:49;40.80;56.00
63771;DHT22;60282;43.862;18.430;2023-07-13T15:28:15;41.10;55.50
63771;DHT22;60282;43.862;18.430;2023-07-13T15:30:48;40.90;55.50
63771;DHT22;60282;43.862;18.430;2023-07-13T15:33:26;39.30;54.40
63771;DHT22;60282;43.862;18.430;2023-07-13T15:35:52;40.40;55.60
63771;DHT22;60282;43.862;18.430;2023-07-13T15:38:25;39.50;55.90
63771;DHT22;60282;43.862;18.430;2023-07-13T15:40:52;39.00;55.90
63771;DHT22;60282;43.862;18.430;2023-07-13T15:43:19;39.10;57.00
63771;DHT22;60282;43.862;18.430;2023-07-13T15:45:46;39.50;57.70
63771;DHT22;60282;43.862;18.430;2023-07-13T15:48:21;38.90;57.00
63771;DHT22;60282;43.862;18.430;2023-07-13T15:50:53;38.70;57.20
63771;DHT22;60282;43.862;18.430;2023-07-13T15:53:29;38.80;56.30
63771;DHT22;60282;43.862;18.430;2023-07-13T15:55:55;38.60;57.10
63771;DHT22;60282;43.862;18.430;2023-07-13T15:58:22;38.20;57.00
63771;DHT22;60282;43.862;18.430;2023-07-13T16:00:48;37.70;57.90
63771;DHT22;60282;43.862;18.430;2023-07-13T16:03:17;37.20;58.70
63771;DHT22;60282;43.862;18.430;2023-07-13T16:05:45;37.20;58.50
63771;DHT22;60282;43.862;18.430;2023-07-13T16:08:24;37.00;58.60
63771;DHT22;60282;43.862;18.430;2023-07-13T16:10:51;37.60;59.10
63771;DHT22;60282;43.862;18.430;2023-07-13T16:13:19;36.90;59.10
63771;DHT22;60282;43.862;18.430;2023-07-13T16:15:48;36.50;59.60
63771;DHT22;60282;43.862;18.430;2023-07-13T16:18:14;36.30;59.50